createdAt,value
2023-05-12T00:02:02.456Z,11.77
2023-05-12T00:06:05.617Z,14.02
2023-05-12T00:10:17.275Z,12.00
2023-05-12T00:14:23.329Z,12.10
2023-05-12T00:18:32.262Z,13.27
2023-05-12T00:22:38.514Z,13.10
2023-05-12T00:26:44.086Z,12.63
2023-05-12T00:30:49.246Z,13.02
2023-05-12T00:39:04.442Z,11.10
2023-05-12T00:43:07.674Z,10.85
2023-05-12T00:51:17.529Z,11.15
2023-05-12T00:55:25.749Z,10.50
2023-05-12T00:59:32.029Z,10.82
2023-05-12T01:03:41.962Z,10.85
2023-05-12T01:07:53.787Z,9.95
2023-05-12T01:12:06.617Z,10.38
2023-05-12T01:16:14.321Z,10.73
2023-05-12T01:20:26.671Z,10.38
2023-05-12T01:24:37.566Z,11.02
2023-05-12T01:28:41.753Z,10.10
2023-05-12T01:32:51.076Z,11.00
2023-05-12T01:36:54.005Z,11.48
2023-05-12T01:40:59.308Z,11.27
2023-05-12T01:45:02.270Z,11.48
2023-05-12T01:49:09.232Z,11.57
2023-05-12T01:53:16.325Z,10.90
2023-05-12T01:57:47.171Z,11.32
2023-05-12T02:01:56.773Z,11.43
2023-05-12T02:06:08.828Z,13.20
2023-05-12T02:10:13.466Z,13.10
2023-05-12T02:14:22.314Z,11.15
2023-05-12T02:18:37.088Z,12.43
2023-05-12T02:22:44.526Z,11.43
2023-05-12T02:26:50.750Z,12.32
2023-05-12T02:30:56.663Z,11.80
2023-05-12T02:35:00.235Z,12.95
2023-05-12T02:39:15.815Z,11.43
2023-05-12T02:43:24.400Z,10.98
2023-05-12T02:47:36.324Z,10.50
2023-05-12T02:51:41.722Z,10.00
2023-05-12T02:55:52.320Z,10.77
2023-05-12T03:00:00.463Z,10.60
2023-05-12T03:04:11.752Z,12.45
2023-05-12T03:08:17.403Z,12.32
2023-05-12T03:12:30.908Z,11.90
2023-05-12T03:16:43.677Z,10.35
2023-05-12T03:20:50.228Z,9.07
2023-05-12T03:24:57.163Z,6.15
2023-05-12T03:33:33.215Z,4.93
2023-05-12T03:37:39.802Z,4.28
2023-05-12T03:41:47.546Z,4.18
2023-05-12T03:45:50.963Z,3.88
2023-05-12T03:50:00.460Z,4.10
2023-05-12T03:54:05.045Z,5.20
2023-05-12T03:58:12.186Z,5.63
2023-05-12T04:02:15.400Z,5.95
2023-05-12T04:06:21.463Z,7.20
2023-05-12T04:10:27.705Z,7.05
2023-05-12T04:14:41.727Z,6.68
2023-05-12T04:18:51.320Z,7.03
2023-05-12T04:22:54.751Z,7.65
2023-05-12T04:27:06.260Z,7.55
2023-05-12T04:31:16.800Z,7.63
2023-05-12T04:35:23.403Z,7.63
2023-05-12T04:39:35.510Z,7.65
2023-05-12T04:48:14.995Z,8.40
2023-05-12T04:52:24.760Z,8.63
2023-05-12T04:56:32.367Z,9.35
2023-05-12T05:00:41.653Z,8.93
2023-05-12T05:04:47.837Z,9.00
2023-05-12T05:08:58.147Z,8.43
2023-05-12T05:13:04.341Z,7.97
2023-05-12T05:17:17.073Z,8.30
2023-05-12T05:21:20.996Z,8.98
2023-05-12T05:25:27.176Z,8.77
2023-05-12T05:29:31.917Z,8.43
2023-05-12T05:33:37.022Z,7.85
2023-05-12T05:37:41.003Z,8.30
2023-05-12T05:41:47.936Z,7.78
2023-05-12T05:45:56.262Z,7.82
2023-05-12T05:50:03.034Z,7.75
2023-05-12T05:54:15.087Z,7.45
2023-05-12T05:58:19.979Z,7.70
2023-05-12T06:02:25.796Z,8.43
2023-05-12T06:06:38.283Z,9.18
2023-05-12T06:10:45.371Z,8.32
2023-05-12T06:14:59.694Z,10.00
2023-05-12T06:19:11.861Z,9.20
2023-05-12T06:23:32.258Z,8.75
2023-05-12T06:27:43.446Z,8.43
2023-05-12T06:31:53.792Z,8.20
2023-05-12T06:36:00.122Z,8.35
2023-05-12T06:40:07.390Z,8.38
2023-05-12T06:44:15.821Z,6.28
2023-05-12T06:48:20.871Z,7.70
2023-05-12T06:52:41.069Z,8.35
2023-05-12T06:56:57.112Z,8.23
2023-05-12T07:01:01.114Z,9.38
2023-05-12T07:05:09.164Z,8.80
2023-05-12T07:09:15.275Z,7.68
2023-05-12T07:13:19.504Z,7.22
2023-05-12T07:17:23.682Z,6.72
2023-05-12T07:21:31.445Z,6.88
2023-05-12T07:25:40.957Z,6.32
2023-05-12T07:29:54.733Z,8.38
2023-05-12T07:34:04.093Z,5.97
2023-05-12T07:38:13.869Z,7.60
2023-05-12T07:42:31.312Z,6.50
2023-05-12T07:46:40.646Z,7.15
2023-05-12T07:51:04.799Z,5.43
2023-05-12T07:55:15.810Z,5.65
2023-05-12T07:59:20.213Z,6.32
2023-05-12T08:03:36.139Z,6.43
2023-05-12T08:07:48.055Z,5.75
2023-05-12T08:11:54.582Z,6.97
2023-05-12T08:16:16.407Z,6.60
2023-05-12T08:20:23.568Z,5.43
2023-05-12T08:24:29.116Z,5.63
2023-05-12T08:28:33.590Z,5.18
2023-05-12T08:32:39.989Z,8.32
2023-05-12T08:36:49.752Z,6.25
2023-05-12T08:41:20.936Z,6.85
2023-05-12T08:45:35.411Z,5.70
2023-05-12T08:54:00.349Z,5.65
2023-05-12T08:58:20.088Z,5.47
2023-05-12T09:02:41.346Z,5.43
2023-05-12T09:07:02.300Z,4.93
2023-05-12T09:11:12.222Z,6.28
2023-05-12T09:15:23.687Z,5.20
2023-05-12T09:19:36.685Z,5.03
2023-05-12T09:23:56.070Z,4.70
2023-05-12T09:28:00.144Z,5.10
2023-05-12T09:32:06.944Z,4.15
2023-05-12T09:36:13.802Z,4.40
2023-05-12T09:40:20.215Z,4.80
2023-05-12T09:44:32.876Z,4.72
2023-05-12T09:48:58.534Z,9.18
2023-05-12T09:53:04.653Z,5.20
2023-05-12T09:57:13.503Z,4.75
2023-05-12T10:01:24.002Z,4.50
2023-05-12T10:09:50.658Z,4.28
2023-05-12T10:14:01.938Z,4.15
2023-05-12T10:18:09.020Z,4.03
2023-05-12T10:22:14.899Z,3.67
2023-05-12T10:26:24.335Z,5.28
2023-05-12T10:30:40.138Z,4.00
2023-05-12T10:34:46.414Z,3.85
2023-05-12T10:38:55.805Z,4.28
2023-05-12T10:43:02.933Z,3.67
2023-05-12T10:47:19.544Z,4.03
2023-05-12T10:51:31.595Z,3.72
2023-05-12T10:55:45.785Z,4.40
2023-05-12T11:00:20.379Z,4.30
2023-05-12T11:04:54.506Z,3.95
2023-05-12T11:09:04.983Z,4.43
2023-05-12T11:13:21.337Z,4.53
2023-05-12T11:17:44.252Z,4.10
2023-05-12T11:26:05.637Z,3.92
2023-05-12T11:30:12.553Z,4.50
2023-05-12T11:34:25.811Z,3.83
2023-05-12T11:38:29.820Z,4.20
2023-05-12T11:42:35.784Z,3.65
2023-05-12T11:46:42.748Z,4.10
2023-05-12T11:50:50.147Z,4.40
2023-05-12T11:55:06.998Z,4.13
2023-05-12T11:59:11.948Z,4.30
2023-05-12T12:03:19.738Z,3.67
2023-05-12T12:07:35.319Z,4.00
2023-05-12T12:11:59.525Z,4.57
2023-05-12T12:16:03.773Z,4.07
2023-05-12T12:20:21.077Z,3.80
2023-05-12T12:24:36.461Z,3.78
2023-05-12T12:28:48.479Z,2.55
2023-05-12T12:32:56.021Z,2.45
2023-05-12T12:37:11.163Z,2.60
2023-05-12T12:41:15.592Z,1.92
2023-05-12T12:45:22.699Z,1.77
2023-05-12T12:49:34.695Z,2.28
2023-05-12T12:53:47.294Z,2.10
2023-05-12T12:57:55.122Z,1.65
2023-05-12T13:02:02.791Z,1.88
2023-05-12T13:06:11.928Z,2.22
2023-05-12T13:10:21.878Z,2.20
2023-05-12T13:14:26.320Z,1.77
2023-05-12T13:18:36.561Z,2.40
2023-05-12T13:22:46.604Z,1.70
2023-05-12T13:26:56.388Z,2.35
2023-05-12T13:31:05.047Z,2.20
2023-05-12T13:35:20.789Z,1.90
2023-05-12T13:43:29.310Z,1.70
2023-05-12T13:47:39.288Z,1.90
2023-05-12T13:51:43.276Z,1.83
2023-05-12T13:55:49.924Z,1.90
2023-05-12T13:59:58.331Z,2.00
2023-05-12T14:04:02.938Z,1.98
2023-05-12T14:08:07.249Z,1.98
2023-05-12T14:12:11.972Z,1.85
2023-05-12T14:16:20.711Z,1.83
2023-05-12T14:20:26.952Z,1.65
2023-05-12T14:24:34.687Z,2.50
2023-05-12T14:28:50.615Z,2.00
2023-05-12T14:32:58.349Z,1.60
2023-05-12T14:37:04.920Z,1.50
2023-05-12T14:41:15.889Z,1.83
2023-05-12T14:45:22.674Z,1.65
2023-05-12T14:49:26.624Z,1.70
2023-05-12T14:53:34.497Z,2.70
2023-05-12T14:57:40.100Z,1.63
2023-05-12T15:01:43.965Z,1.70
2023-05-12T15:06:05.469Z,1.85
2023-05-12T15:10:10.393Z,1.98
2023-05-12T15:14:16.530Z,1.85
2023-05-12T15:18:21.109Z,1.58
2023-05-12T15:22:42.506Z,1.70
2023-05-12T15:26:49.655Z,1.58
2023-05-12T15:31:11.012Z,1.42
2023-05-12T15:35:24.462Z,1.52
2023-05-12T15:39:34.833Z,1.75
2023-05-12T15:43:44.944Z,1.50
2023-05-12T15:47:52.931Z,1.52
2023-05-12T15:51:59.644Z,1.83
2023-05-12T15:56:04.003Z,1.42
2023-05-12T16:00:11.819Z,1.40
2023-05-12T16:04:22.906Z,1.80
2023-05-12T16:08:29.344Z,1.60
2023-05-12T16:12:44.811Z,1.75
2023-05-12T16:16:52.708Z,2.22
2023-05-12T16:21:00.169Z,2.00
2023-05-12T16:25:04.206Z,1.75
2023-05-12T16:29:31.777Z,1.70
2023-05-12T16:33:45.464Z,1.88
2023-05-12T16:37:50.002Z,1.75
2023-05-12T16:42:05.095Z,1.77
2023-05-12T16:46:13.601Z,1.60
2023-05-12T16:50:20.562Z,1.75
2023-05-12T16:54:24.974Z,2.00
2023-05-12T16:58:38.962Z,1.85
2023-05-12T17:02:56.875Z,1.50
2023-05-12T17:07:11.851Z,1.85
2023-05-12T17:11:20.575Z,3.05
2023-05-12T17:15:29.102Z,2.10
2023-05-12T17:19:35.662Z,1.90
2023-05-12T17:23:39.974Z,1.90
2023-05-12T17:27:48.589Z,2.08
2023-05-12T17:31:55.138Z,1.70
2023-05-12T17:36:13.404Z,1.90
2023-05-12T17:40:18.718Z,2.15
2023-05-12T17:44:30.484Z,2.35
2023-05-12T17:48:37.382Z,1.90
2023-05-12T17:52:45.744Z,2.15
2023-05-12T17:56:52.335Z,2.38
2023-05-12T18:00:58.744Z,1.90
2023-05-12T18:05:11.724Z,2.00
2023-05-12T18:09:14.733Z,1.92
2023-05-12T18:13:19.091Z,2.70
2023-05-12T18:17:24.897Z,2.05
2023-05-12T18:21:37.783Z,2.55
2023-05-12T18:25:44.966Z,1.88
2023-05-12T18:29:57.444Z,2.70
2023-05-12T18:34:05.293Z,2.30
2023-05-12T18:38:11.261Z,2.25
2023-05-12T18:42:13.579Z,2.50
2023-05-12T18:46:26.109Z,2.10
2023-05-12T18:50:32.124Z,2.10
2023-05-12T18:54:39.998Z,2.22
2023-05-12T18:58:44.074Z,2.78
2023-05-12T19:02:50.690Z,3.20
2023-05-12T19:07:03.946Z,2.60
2023-05-12T19:11:11.608Z,2.40
2023-05-12T19:15:23.060Z,2.65
2023-05-12T19:19:30.088Z,2.70
2023-05-12T19:23:53.928Z,2.50
2023-05-12T19:27:59.577Z,2.55
2023-05-12T19:32:14.747Z,2.30
2023-05-12T19:36:20.374Z,2.15
2023-05-12T19:40:28.998Z,2.45
2023-05-12T19:44:38.203Z,2.50
2023-05-12T19:48:44.517Z,2.78
2023-05-12T19:52:50.649Z,3.03
2023-05-12T19:56:59.440Z,2.30
2023-05-12T20:01:08.698Z,2.85
2023-05-12T20:05:16.253Z,3.03
2023-05-12T20:09:21.734Z,2.72
2023-05-12T20:13:26.093Z,3.15
2023-05-12T20:17:33.947Z,2.90
2023-05-12T20:21:44.351Z,3.00
2023-05-12T20:25:48.763Z,2.83
2023-05-12T20:29:58.239Z,2.92
2023-05-12T20:34:08.745Z,3.05
2023-05-12T20:38:17.511Z,3.55
2023-05-12T20:42:20.362Z,2.80
2023-05-12T20:50:32.244Z,2.80
2023-05-12T20:54:36.283Z,3.25
2023-05-12T20:58:40.731Z,4.13
2023-05-12T21:02:50.033Z,3.97
2023-05-12T21:06:54.074Z,3.92
2023-05-12T21:10:58.924Z,3.50
2023-05-12T21:15:03.741Z,3.95
2023-05-12T21:19:12.671Z,4.20
2023-05-12T21:23:22.060Z,4.32
2023-05-12T21:27:35.901Z,4.70
2023-05-12T21:31:39.811Z,4.43
2023-05-12T21:35:46.690Z,5.38
2023-05-12T21:39:59.262Z,5.30
2023-05-12T21:44:32.163Z,5.78
2023-05-12T21:48:38.453Z,5.10
2023-05-12T21:52:44.248Z,4.63
2023-05-12T21:56:51.467Z,4.47
2023-05-12T22:01:00.661Z,4.05
2023-05-12T22:05:12.335Z,4.35
2023-05-12T22:09:16.650Z,4.40
2023-05-12T22:13:20.553Z,4.15
2023-05-12T22:17:37.077Z,4.38
2023-05-12T22:21:43.850Z,4.68
2023-05-12T22:25:51.227Z,3.92
2023-05-12T22:29:58.342Z,4.50
2023-05-12T22:34:16.214Z,4.60
2023-05-12T22:38:22.742Z,4.07
2023-05-12T22:42:28.765Z,4.55
2023-05-12T22:46:33.575Z,5.00
2023-05-12T22:50:39.974Z,5.60
2023-05-12T22:54:49.173Z,5.18
2023-05-12T22:58:55.625Z,5.50
2023-05-12T23:03:01.203Z,4.95
2023-05-12T23:07:14.521Z,6.05
2023-05-12T23:11:24.841Z,6.07
2023-05-12T23:15:34.475Z,5.80
2023-05-12T23:19:43.460Z,7.25
2023-05-12T23:23:47.904Z,6.78
2023-05-12T23:28:01.807Z,7.40
2023-05-12T23:32:06.441Z,8.10
2023-05-12T23:36:14.533Z,8.32
2023-05-12T23:40:27.145Z,11.32
2023-05-12T23:44:34.169Z,11.20
2023-05-12T23:48:46.291Z,9.27
2023-05-12T23:52:50.331Z,9.20
2023-05-12T23:57:12.802Z,9.95
